createdAt,value
2018-02-15T00:01:10.679Z,2.03
2018-02-15T00:03:39.019Z,2.02
2018-02-15T00:06:06.541Z,2.07
2018-02-15T00:08:34.046Z,2.09
2018-02-15T00:11:01.543Z,2.10
2018-02-15T00:13:29.053Z,2.14
2018-02-15T00:15:56.563Z,2.15
2018-02-15T00:18:24.083Z,2.17
2018-02-15T00:20:51.601Z,2.18
2018-02-15T00:23:19.877Z,2.20
2018-02-15T00:25:47.395Z,2.18
2018-02-15T00:28:14.936Z,2.14
2018-02-15T00:30:42.452Z,2.08
2018-02-15T00:33:09.950Z,2.09
2018-02-15T00:35:37.471Z,2.06
2018-02-15T00:38:04.952Z,2.10
2018-02-15T00:40:32.525Z,2.12
2018-02-15T00:43:00.107Z,2.17
2018-02-15T00:45:28.475Z,2.17
2018-02-15T00:47:56.072Z,2.22
2018-02-15T00:50:23.693Z,2.23
2018-02-15T00:52:51.250Z,2.16
2018-02-15T00:55:18.727Z,2.13
2018-02-15T00:57:46.229Z,2.00
2018-02-15T01:00:13.747Z,1.95
2018-02-15T01:02:41.251Z,1.83
2018-02-15T01:05:08.874Z,1.65
2018-02-15T01:07:36.392Z,1.56
2018-02-15T01:10:03.869Z,1.59
2018-02-15T01:12:31.375Z,1.69
2018-02-15T01:14:58.941Z,1.77
2018-02-15T01:17:26.425Z,1.82
2018-02-15T01:19:53.922Z,1.92
2018-02-15T01:22:21.589Z,2.04
2018-02-15T01:24:49.113Z,2.08
2018-02-15T01:27:16.603Z,2.13
2018-02-15T01:29:44.127Z,2.12
2018-02-15T01:32:11.604Z,2.19
2018-02-15T01:34:39.477Z,2.21
2018-02-15T01:37:07.035Z,2.28
2018-02-15T01:39:34.608Z,2.32
2018-02-15T01:42:02.181Z,2.33
2018-02-15T01:44:29.710Z,2.27
2018-02-15T01:46:57.275Z,2.31
2018-02-15T01:49:24.871Z,2.34
2018-02-15T01:51:52.430Z,2.37
2018-02-15T01:54:19.934Z,2.37
2018-02-15T01:56:47.451Z,2.33
2018-02-15T01:59:14.992Z,2.29
2018-02-15T02:01:42.495Z,2.39
2018-02-15T02:04:10.012Z,2.43
2018-02-15T02:06:37.496Z,2.38
2018-02-15T02:09:05.006Z,2.39
2018-02-15T02:11:32.497Z,2.36
2018-02-15T02:14:00.020Z,2.40
2018-02-15T02:16:27.501Z,2.48
2018-02-15T02:18:55.014Z,2.51
2018-02-15T02:21:22.499Z,2.56
2018-02-15T02:23:52.288Z,2.65
2018-02-15T02:26:19.806Z,2.73
2018-02-15T02:28:47.304Z,2.78
2018-02-15T02:31:14.860Z,2.83
2018-02-15T02:33:42.422Z,2.85
2018-02-15T02:36:10.011Z,2.88
2018-02-15T02:38:37.615Z,2.89
2018-02-15T02:41:05.249Z,2.80
2018-02-15T02:43:32.806Z,2.84
2018-02-15T02:46:00.327Z,2.92
2018-02-15T02:48:28.006Z,2.91
2018-02-15T02:50:55.505Z,2.95
2018-02-15T02:53:23.013Z,3.00
2018-02-15T02:55:50.495Z,3.04
2018-02-15T02:58:18.016Z,3.07
2018-02-15T03:03:19.311Z,2.93
2018-02-15T03:05:46.795Z,2.97
2018-02-15T03:08:14.396Z,2.97
2018-02-15T03:10:41.861Z,2.88
2018-02-15T03:13:09.380Z,2.83
2018-02-15T03:15:36.872Z,2.80
2018-02-15T03:18:04.358Z,2.87
2018-02-15T03:20:31.974Z,2.95
2018-02-15T03:22:59.468Z,3.02
2018-02-15T03:25:26.980Z,3.05
2018-02-15T03:27:54.458Z,3.07
2018-02-15T03:30:21.980Z,3.01
2018-02-15T03:32:49.591Z,3.02
2018-02-15T03:35:17.157Z,3.06
2018-02-15T03:37:44.686Z,3.10
2018-02-15T03:40:12.184Z,3.17
2018-02-15T03:42:39.700Z,3.21
2018-02-15T03:45:07.169Z,3.27
2018-02-15T03:47:34.676Z,3.29
2018-02-15T03:50:02.152Z,3.30
2018-02-15T03:52:29.685Z,3.31
2018-02-15T03:54:57.162Z,3.31
2018-02-15T03:57:24.638Z,3.31
2018-02-15T03:59:52.145Z,3.32
2018-02-15T04:02:19.661Z,3.28
2018-02-15T04:04:47.194Z,3.29
2018-02-15T04:07:14.815Z,3.30
2018-02-15T04:09:42.317Z,3.30
2018-02-15T04:12:09.794Z,3.32
2018-02-15T04:14:37.299Z,3.39
2018-02-15T04:17:04.869Z,3.40
2018-02-15T04:19:32.369Z,3.44
2018-02-15T04:21:59.894Z,3.44
2018-02-15T04:24:27.381Z,3.45
2018-02-15T04:26:54.905Z,3.49
2018-02-15T04:29:22.391Z,3.49
2018-02-15T04:31:49.888Z,3.51
2018-02-15T04:34:17.401Z,3.51
2018-02-15T04:36:44.903Z,3.47
2018-02-15T04:39:12.438Z,3.45
2018-02-15T04:41:39.918Z,3.32
2018-02-15T04:44:07.433Z,3.17
2018-02-15T04:46:34.914Z,3.01
2018-02-15T04:49:02.447Z,3.07
2018-02-15T04:51:29.933Z,3.07
2018-02-15T04:53:57.685Z,2.98
2018-02-15T04:56:25.186Z,2.95
2018-02-15T04:58:52.663Z,3.04
2018-02-15T05:01:20.186Z,3.01
2018-02-15T05:03:47.665Z,2.97
2018-02-15T05:06:15.179Z,2.98
2018-02-15T05:08:42.656Z,2.98
2018-02-15T05:11:10.181Z,3.06
2018-02-15T05:13:37.739Z,3.15
2018-02-15T05:16:05.244Z,3.28
2018-02-15T05:18:32.917Z,3.37
2018-02-15T05:21:00.566Z,3.40
2018-02-15T05:23:28.108Z,3.40
2018-02-15T05:25:55.744Z,3.41
2018-02-15T05:28:23.263Z,3.42
2018-02-15T05:30:50.754Z,3.38
2018-02-15T05:33:18.259Z,3.34
2018-02-15T05:35:45.827Z,3.24
2018-02-15T05:38:13.302Z,3.17
2018-02-15T05:40:40.806Z,3.14
2018-02-15T05:43:08.279Z,3.08
2018-02-15T05:45:35.788Z,3.09
2018-02-15T05:48:03.257Z,3.19
2018-02-15T05:50:31.503Z,3.27
2018-02-15T05:52:59.025Z,3.28
2018-02-15T05:55:26.533Z,3.32
2018-02-15T05:57:54.047Z,3.33
2018-02-15T06:00:21.581Z,3.32
2018-02-15T06:02:49.085Z,3.33
2018-02-15T06:05:16.558Z,3.36
2018-02-15T06:07:44.071Z,3.39
2018-02-15T06:10:11.559Z,3.42
2018-02-15T06:12:39.056Z,3.47
2018-02-15T06:15:06.579Z,3.55
2018-02-15T06:17:36.117Z,3.48
2018-02-15T06:20:03.682Z,3.53
2018-02-15T06:22:31.265Z,3.51
2018-02-15T06:24:58.833Z,3.45
2018-02-15T06:27:26.408Z,3.47
2018-02-15T06:29:53.954Z,3.50
2018-02-15T06:32:21.461Z,3.54
2018-02-15T06:34:48.971Z,3.54
2018-02-15T06:37:16.509Z,3.55
2018-02-15T06:39:43.978Z,3.53
2018-02-15T06:42:11.495Z,3.52
2018-02-15T06:44:38.970Z,3.52
2018-02-15T06:47:06.473Z,3.59
2018-02-15T06:49:33.957Z,3.68
2018-02-15T06:52:01.456Z,3.72
2018-02-15T06:54:28.928Z,3.75
2018-02-15T06:56:56.499Z,3.78
2018-02-15T06:59:24.020Z,3.76
2018-02-15T07:01:51.586Z,3.82
2018-02-15T07:04:19.217Z,3.83
2018-02-15T07:06:46.874Z,3.91
2018-02-15T07:09:14.451Z,3.92
2018-02-15T07:11:42.006Z,3.95
2018-02-15T07:14:09.654Z,4.01
2018-02-15T07:16:37.253Z,4.07
2018-02-15T07:19:04.744Z,4.15
2018-02-15T07:21:32.280Z,4.21
2018-02-15T07:23:59.780Z,4.27
2018-02-15T07:26:27.295Z,4.31
2018-02-15T07:28:54.804Z,4.33
2018-02-15T07:31:22.289Z,4.33
2018-02-15T07:33:49.771Z,4.34
2018-02-15T07:36:17.282Z,4.43
2018-02-15T07:38:44.782Z,4.46
2018-02-15T07:41:12.314Z,4.45
2018-02-15T07:43:39.826Z,4.45
2018-02-15T07:46:07.363Z,4.49
2018-02-15T07:48:34.861Z,4.57
2018-02-15T07:51:02.408Z,4.56
2018-02-15T07:53:29.914Z,4.49
2018-02-15T07:55:57.416Z,4.49
2018-02-15T07:58:24.943Z,4.46
2018-02-15T08:00:53.022Z,4.47
2018-02-15T08:03:20.532Z,4.42
2018-02-15T08:05:48.141Z,4.42
2018-02-15T08:08:15.733Z,4.52
2018-02-15T08:10:43.311Z,4.61
2018-02-15T08:13:10.860Z,4.65
2018-02-15T08:15:38.372Z,4.65
2018-02-15T08:18:05.863Z,4.68
2018-02-15T08:20:33.395Z,4.53
2018-02-15T08:23:00.872Z,4.35
2018-02-15T08:25:28.386Z,4.39
2018-02-15T08:27:55.874Z,4.41
2018-02-15T08:30:23.365Z,4.39
2018-02-15T08:32:50.928Z,4.45
2018-02-15T08:35:18.411Z,4.51
2018-02-15T08:37:45.955Z,4.53
2018-02-15T08:40:14.224Z,4.42
2018-02-15T08:42:41.882Z,4.41
2018-02-15T08:45:09.458Z,4.27
2018-02-15T08:47:37.084Z,4.27
2018-02-15T08:50:04.649Z,4.44
2018-02-15T08:52:32.189Z,4.42
2018-02-15T08:54:59.696Z,4.52
2018-02-15T08:57:27.212Z,4.42
2018-02-15T08:59:54.750Z,4.37
2018-02-15T09:02:22.250Z,4.31
2018-02-15T09:04:49.788Z,4.28
2018-02-15T09:07:17.289Z,4.12
2018-02-15T09:09:44.799Z,4.00
2018-02-15T09:12:12.307Z,4.09
2018-02-15T09:14:39.832Z,4.20
2018-02-15T09:17:08.197Z,4.22
2018-02-15T09:19:35.799Z,4.15
2018-02-15T09:22:03.307Z,4.19
2018-02-15T09:24:30.872Z,4.30
2018-02-15T09:26:58.382Z,4.36
2018-02-15T09:29:25.894Z,4.40
2018-02-15T09:31:53.399Z,4.33
2018-02-15T09:34:20.918Z,4.23
2018-02-15T09:36:48.490Z,4.08
2018-02-15T09:39:15.982Z,4.11
2018-02-15T09:41:43.492Z,4.04
2018-02-15T09:44:10.971Z,3.96
2018-02-15T09:46:38.477Z,4.12
2018-02-15T09:49:05.951Z,4.36
2018-02-15T09:51:33.477Z,4.45
2018-02-15T09:54:01.117Z,4.61
2018-02-15T09:56:28.610Z,4.65
2018-02-15T09:58:56.129Z,4.59
2018-02-15T10:01:23.613Z,4.52
2018-02-15T10:03:51.118Z,4.76
2018-02-15T10:06:18.615Z,4.87
2018-02-15T10:08:46.144Z,4.83
2018-02-15T10:11:13.633Z,4.73
2018-02-15T10:13:41.154Z,4.76
2018-02-15T10:16:08.635Z,4.73
2018-02-15T10:18:36.169Z,4.66
2018-02-15T10:21:03.686Z,4.65
2018-02-15T10:23:31.181Z,4.69
2018-02-15T10:25:58.820Z,4.78
2018-02-15T10:28:26.433Z,4.80
2018-02-15T10:30:53.974Z,4.82
2018-02-15T10:33:21.483Z,5.02
2018-02-15T10:35:49.009Z,5.21
2018-02-15T10:38:16.583Z,5.25
2018-02-15T10:40:44.106Z,5.26
2018-02-15T10:43:11.632Z,5.35
2018-02-15T10:45:39.142Z,5.52
2018-02-15T10:48:06.659Z,5.64
2018-02-15T10:50:34.168Z,5.76
2018-02-15T10:53:01.684Z,5.86
2018-02-15T10:55:29.177Z,5.94
2018-02-15T10:57:56.707Z,5.98
2018-02-15T11:00:29.797Z,6.06
2018-02-15T11:03:03.505Z,6.13
2018-02-15T11:05:32.287Z,6.23
2018-02-15T11:07:59.792Z,6.37
2018-02-15T11:10:27.336Z,6.45
2018-02-15T11:12:54.857Z,6.53
2018-02-15T11:15:22.375Z,6.63
2018-02-15T11:17:49.929Z,6.68
2018-02-15T11:20:17.572Z,6.61
2018-02-15T11:22:45.090Z,6.54
2018-02-15T11:25:12.735Z,6.51
2018-02-15T11:27:40.344Z,6.44
2018-02-15T11:30:07.877Z,6.36
2018-02-15T11:32:35.366Z,6.29
2018-02-15T11:35:03.759Z,6.40
2018-02-15T11:37:31.276Z,6.50
2018-02-15T11:39:59.500Z,6.62
2018-02-15T11:42:27.023Z,6.61
2018-02-15T11:44:54.549Z,6.50
2018-02-15T11:47:22.060Z,6.40
2018-02-15T11:49:49.551Z,6.46
2018-02-15T11:52:17.087Z,6.52
2018-02-15T11:54:44.567Z,6.62
2018-02-15T11:57:12.125Z,6.61
2018-02-15T11:59:39.613Z,6.69
2018-02-15T12:02:07.123Z,6.62
2018-02-15T12:04:34.680Z,6.68
2018-02-15T12:07:02.169Z,6.56
2018-02-15T12:09:29.686Z,6.44
2018-02-15T12:11:57.180Z,6.52
2018-02-15T12:14:25.309Z,6.51
2018-02-15T12:16:52.810Z,6.41
2018-02-15T12:19:20.338Z,6.45
2018-02-15T12:21:47.848Z,6.49
2018-02-15T12:24:15.337Z,6.48
2018-02-15T12:26:42.848Z,6.37
2018-02-15T12:29:10.344Z,6.34
2018-02-15T12:31:37.853Z,6.35
2018-02-15T12:34:05.352Z,6.43
2018-02-15T12:36:32.945Z,6.39
2018-02-15T12:39:00.516Z,6.51
2018-02-15T12:41:28.061Z,6.64
2018-02-15T12:43:55.742Z,6.71
2018-02-15T12:46:23.299Z,6.76
2018-02-15T12:48:50.824Z,6.63
2018-02-15T12:51:18.314Z,6.38
2018-02-15T12:53:45.860Z,6.28
2018-02-15T12:56:13.345Z,6.28
2018-02-15T12:58:40.909Z,6.30
2018-02-15T13:01:08.408Z,6.32
2018-02-15T13:03:35.911Z,6.36
2018-02-15T13:06:03.463Z,6.39
2018-02-15T13:08:30.990Z,6.35
2018-02-15T13:10:58.502Z,6.25
2018-02-15T13:13:31.821Z,6.27
2018-02-15T13:19:16.285Z,6.35
2018-02-15T13:21:43.828Z,6.48
2018-02-15T13:24:11.348Z,6.58
2018-02-15T13:26:38.846Z,6.61
2018-02-15T13:29:06.392Z,6.58
2018-02-15T13:31:33.874Z,6.45
2018-02-15T13:34:01.401Z,6.35
2018-02-15T13:36:28.938Z,6.35
2018-02-15T13:38:57.082Z,6.31
2018-02-15T13:41:24.606Z,6.38
2018-02-15T13:43:52.926Z,6.41
2018-02-15T13:46:20.418Z,6.47
2018-02-15T13:48:47.949Z,6.51
2018-02-15T13:51:15.448Z,6.56
2018-02-15T13:53:42.997Z,6.63
2018-02-15T13:56:10.619Z,6.66
2018-02-15T13:58:38.152Z,6.56
2018-02-15T14:01:05.677Z,6.64
2018-02-15T14:03:33.179Z,6.66
2018-02-15T14:06:00.703Z,6.77
2018-02-15T14:08:28.222Z,6.73
2018-02-15T14:10:55.781Z,6.68
2018-02-15T14:13:23.275Z,6.74
2018-02-15T14:15:50.812Z,6.77
2018-02-15T14:18:18.353Z,6.85
2018-02-15T14:20:46.334Z,6.90
2018-02-15T14:23:13.939Z,6.93
2018-02-15T14:25:41.497Z,6.88
2018-02-15T14:28:09.135Z,6.86
2018-02-15T14:30:36.755Z,6.82
2018-02-15T14:33:04.302Z,6.82
2018-02-15T14:35:31.940Z,6.75
2018-02-15T14:37:59.474Z,6.77
2018-02-15T14:40:27.018Z,6.85
2018-02-15T14:42:54.534Z,6.92
2018-02-15T14:45:22.067Z,6.96
2018-02-15T14:47:49.567Z,7.04
2018-02-15T14:50:17.103Z,7.00
2018-02-15T14:52:44.628Z,6.97
2018-02-15T14:55:12.125Z,6.99
2018-02-15T14:57:39.641Z,7.05
2018-02-15T15:00:07.149Z,7.14
2018-02-15T15:02:34.818Z,7.05
2018-02-15T15:05:02.333Z,7.09
2018-02-15T15:07:29.859Z,7.13
2018-02-15T15:09:57.377Z,7.20
2018-02-15T15:12:24.998Z,7.20
2018-02-15T15:14:53.265Z,7.26
2018-02-15T15:17:20.797Z,7.26
2018-02-15T15:19:48.317Z,7.24
2018-02-15T15:22:15.852Z,7.17
2018-02-15T15:24:43.383Z,7.14
2018-02-15T15:27:11.046Z,7.10
2018-02-15T15:29:38.650Z,7.16
2018-02-15T15:32:06.632Z,7.13
2018-02-15T15:34:34.194Z,7.10
2018-02-15T15:37:01.804Z,7.03
2018-02-15T15:39:29.316Z,6.77
2018-02-15T15:41:56.912Z,6.82
2018-02-15T15:44:24.717Z,6.83
2018-02-15T15:46:52.265Z,6.89
2018-02-15T15:49:19.771Z,6.89
2018-02-15T15:51:47.325Z,6.95
2018-02-15T15:54:14.842Z,7.02
2018-02-15T15:56:42.370Z,7.04
2018-02-15T15:59:09.899Z,6.93
2018-02-15T16:01:37.581Z,6.95
2018-02-15T16:04:05.133Z,6.98
2018-02-15T16:06:33.402Z,7.06
2018-02-15T16:09:01.556Z,7.08
2018-02-15T16:11:29.569Z,7.08
2018-02-15T16:13:57.079Z,7.04
2018-02-15T16:16:24.623Z,7.03
2018-02-15T16:18:52.282Z,6.97
2018-02-15T16:21:19.803Z,7.00
2018-02-15T16:23:47.330Z,7.00
2018-02-15T16:26:14.972Z,7.03
2018-02-15T16:31:16.295Z,7.09
2018-02-15T16:33:43.822Z,7.12
2018-02-15T16:36:11.387Z,7.18
2018-02-15T16:38:38.889Z,7.26
2018-02-15T16:41:06.580Z,7.23
2018-02-15T16:43:34.103Z,7.25
2018-02-15T16:46:01.604Z,7.28
2018-02-15T16:48:29.145Z,7.36
2018-02-15T16:50:56.670Z,7.34
2018-02-15T16:53:24.574Z,7.38
2018-02-15T16:55:52.706Z,7.38
2018-02-15T16:58:20.241Z,7.32
2018-02-15T17:00:47.823Z,7.29
2018-02-15T17:03:15.345Z,7.33
2018-02-15T17:05:42.845Z,7.26
2018-02-15T17:08:10.471Z,7.23
2018-02-15T17:10:38.030Z,7.28
2018-02-15T17:13:05.750Z,7.29
2018-02-15T17:15:33.414Z,7.29
2018-02-15T17:18:00.981Z,7.31
2018-02-15T17:20:28.703Z,7.31
2018-02-15T17:22:56.243Z,7.32
2018-02-15T17:25:23.799Z,7.37
2018-02-15T17:27:51.442Z,7.39
2018-02-15T17:30:18.966Z,7.42
2018-02-15T17:32:46.913Z,7.46
2018-02-15T17:35:14.493Z,7.49
2018-02-15T17:37:42.021Z,7.49
2018-02-15T17:40:09.514Z,7.51
2018-02-15T17:42:37.035Z,7.53
2018-02-15T17:45:04.571Z,7.44
2018-02-15T17:47:32.587Z,7.43
2018-02-15T17:50:00.183Z,7.45
2018-02-15T17:52:27.735Z,7.51
2018-02-15T17:54:55.311Z,7.47
2018-02-15T17:57:22.829Z,7.49
2018-02-15T17:59:50.345Z,7.48
2018-02-15T18:02:17.907Z,7.48
2018-02-15T18:04:45.481Z,7.50
2018-02-15T18:07:13.026Z,7.55
2018-02-15T18:09:40.543Z,7.60
2018-02-15T18:12:08.472Z,7.60
2018-02-15T18:14:36.077Z,7.59
2018-02-15T18:17:03.671Z,7.61
2018-02-15T18:19:31.263Z,7.64
2018-02-15T18:21:58.813Z,7.67
2018-02-15T18:24:26.583Z,7.67
2018-02-15T18:26:54.119Z,7.68
2018-02-15T18:29:21.691Z,7.72
2018-02-15T18:31:49.209Z,7.74
2018-02-15T18:34:16.753Z,7.70
2018-02-15T18:36:44.344Z,7.72
2018-02-15T18:39:11.905Z,7.76
2018-02-15T18:41:39.711Z,7.76
2018-02-15T18:44:07.245Z,7.76
2018-02-15T18:46:34.829Z,7.76
2018-02-15T18:49:02.390Z,7.74
2018-02-15T18:51:29.918Z,7.57
2018-02-15T18:53:57.493Z,7.59
2018-02-15T18:56:25.085Z,7.60
2018-02-15T18:58:52.697Z,7.58
2018-02-15T19:01:20.218Z,7.57
2018-02-15T19:03:47.744Z,7.98
2018-02-15T19:06:15.344Z,8.03
2018-02-15T19:08:42.901Z,8.01
2018-02-15T19:11:10.422Z,7.97
2018-02-15T19:13:37.958Z,7.93
2018-02-15T19:16:05.654Z,7.90
2018-02-15T19:18:33.174Z,7.91
2018-02-15T19:21:01.170Z,7.91
2018-02-15T19:23:28.711Z,7.91
2018-02-15T19:25:56.254Z,7.88
2018-02-15T19:28:23.822Z,7.91
2018-02-15T19:30:51.566Z,7.84
2018-02-15T19:33:19.093Z,7.77
2018-02-15T19:35:46.921Z,7.79
2018-02-15T19:38:14.425Z,7.85
2018-02-15T19:40:41.970Z,7.88
2018-02-15T19:43:09.495Z,7.94
2018-02-15T19:45:37.026Z,7.91
2018-02-15T19:48:04.804Z,7.88
2018-02-15T19:50:32.414Z,7.79
2018-02-15T19:52:59.987Z,7.76
2018-02-15T19:55:27.585Z,7.81
2018-02-15T19:57:55.497Z,7.84
2018-02-15T20:00:23.064Z,7.81
2018-02-15T20:02:50.600Z,7.79
2018-02-15T20:05:18.172Z,7.78
2018-02-15T20:07:45.815Z,7.80
2018-02-15T20:10:13.378Z,7.86
2018-02-15T20:12:40.897Z,7.82
2018-02-15T20:15:09.271Z,7.77
2018-02-15T20:17:36.883Z,7.71
2018-02-15T20:20:10.148Z,7.68
2018-02-15T20:22:37.640Z,7.72
2018-02-15T20:25:05.234Z,7.76
2018-02-15T20:30:37.107Z,7.87
2018-02-15T20:33:04.619Z,7.90
2018-02-15T20:35:32.154Z,7.94
2018-02-15T20:38:05.545Z,7.97
2018-02-15T20:40:36.706Z,7.97
2018-02-15T20:43:04.383Z,8.00
2018-02-15T20:45:31.909Z,8.04
2018-02-15T20:47:59.425Z,8.06
2018-02-15T20:50:32.393Z,8.06
2018-02-15T20:53:05.626Z,8.05
2018-02-15T20:55:38.608Z,8.05
2018-02-15T20:58:06.827Z,8.05
2018-02-15T21:00:34.528Z,8.07
2018-02-15T21:03:02.208Z,8.10
2018-02-15T21:05:29.778Z,8.14
2018-02-15T21:07:57.337Z,8.12
2018-02-15T21:10:24.843Z,8.08
2018-02-15T21:12:52.411Z,8.11
2018-02-15T21:15:19.981Z,8.15
2018-02-15T21:17:47.506Z,8.21
2018-02-15T21:20:15.039Z,8.26
2018-02-15T21:22:42.541Z,8.30
2018-02-15T21:25:10.057Z,8.31
2018-02-15T21:27:37.628Z,8.33
2018-02-15T21:30:05.340Z,8.35
2018-02-15T21:32:32.895Z,8.36
2018-02-15T21:35:00.415Z,8.36
2018-02-15T21:37:27.940Z,8.37
2018-02-15T21:39:55.492Z,8.41
2018-02-15T21:42:23.029Z,8.42
2018-02-15T21:44:50.530Z,8.33
2018-02-15T21:47:18.040Z,8.26
2018-02-15T21:49:45.553Z,8.15
2018-02-15T21:52:13.078Z,8.05
2018-02-15T21:54:40.611Z,8.02
2018-02-15T21:57:08.158Z,8.04
2018-02-15T21:59:35.662Z,8.06
2018-02-15T22:02:03.170Z,8.09
2018-02-15T22:04:30.704Z,8.11
2018-02-15T22:06:58.221Z,8.12
2018-02-15T22:09:25.792Z,8.11
2018-02-15T22:11:53.286Z,8.06
2018-02-15T22:14:20.986Z,8.12
2018-02-15T22:16:48.489Z,8.13
2018-02-15T22:19:16.006Z,8.13
2018-02-15T22:21:43.539Z,8.18
2018-02-15T22:24:11.046Z,8.19
2018-02-15T22:26:38.569Z,8.23
2018-02-15T22:29:06.065Z,8.30
2018-02-15T22:31:33.608Z,8.33
2018-02-15T22:34:01.128Z,8.34
2018-02-15T22:36:28.667Z,8.37
2018-02-15T22:39:00.461Z,8.36
2018-02-15T22:41:27.980Z,8.35
2018-02-15T22:43:55.553Z,8.36
2018-02-15T22:46:23.074Z,8.36
2018-02-15T22:48:50.564Z,8.34
2018-02-15T22:51:18.373Z,8.40
2018-02-15T22:53:45.869Z,8.42
2018-02-15T22:56:13.375Z,8.41
2018-02-15T22:58:40.901Z,8.39
2018-02-15T23:01:08.389Z,8.35
2018-02-15T23:03:35.951Z,8.33
2018-02-15T23:06:03.510Z,8.34
2018-02-15T23:08:31.016Z,8.39
2018-02-15T23:10:58.489Z,8.42
2018-02-15T23:13:26.003Z,8.44
2018-02-15T23:15:53.549Z,8.44
2018-02-15T23:18:21.168Z,8.48
2018-02-15T23:20:48.725Z,8.47
2018-02-15T23:23:17.016Z,8.46
2018-02-15T23:25:44.810Z,8.43
2018-02-15T23:28:12.337Z,8.40
2018-02-15T23:30:39.923Z,8.38
2018-02-15T23:33:07.493Z,8.41
2018-02-15T23:35:35.038Z,8.42
2018-02-15T23:38:02.538Z,8.44
2018-02-15T23:40:30.044Z,8.45
2018-02-15T23:42:57.565Z,8.50
2018-02-15T23:45:25.074Z,8.52
2018-02-15T23:47:52.587Z,8.53
2018-02-15T23:50:20.372Z,8.53
2018-02-15T23:52:47.862Z,8.54
2018-02-15T23:55:15.389Z,8.36
2018-02-15T23:57:42.879Z,8.26
